Time;durP1;ratioP1;P1;durP2;ratioP2;P2;SDS_P1;SDS_P2;PMS_P1;PMS_P2;Temp;Humidity;BMP_temperature;BMP_pressure;BME280_temperature;BME280_humidity;BME280_pressure;Samples;Min_cycle;Max_cycle;Signal;HPM_P1;HPM_P2
2023/06/29 00:00:15;;;;;;;6.65;5.55;;;;;;;;;;5053921;28;20049;-63
2023/06/29 00:02:41;;;;;;;7.70;6.60;;;;;;;;;;5054079;28;20559;-62
2023/06/29 00:05:09;;;;;;;10.15;7.30;;;;;;;;;;5054152;28;20106;-61
2023/06/29 00:07:36;;;;;;;8.25;7.45;;;;;;;;;;5054012;28;20049;-62
2023/06/29 00:10:02;;;;;;;8.38;7.43;;;;;;;;;;5053891;28;20060;-61
2023/06/29 00:12:29;;;;;;;9.43;8.52;;;;;;;;;;5053993;28;20045;-61
2023/06/29 00:14:55;;;;;;;9.57;7.78;;;;;;;;;;5053814;28;20057;-60
2023/06/29 00:17:22;;;;;;;9.30;8.60;;;;;;;;;;5053850;28;20378;-61
2023/06/29 00:19:48;;;;;;;9.75;8.82;;;;;;;;;;5053714;28;20489;-61
2023/06/29 00:22:18;;;;;;;10.00;9.00;;;;;;;;;;5053661;28;20500;-62
2023/06/29 00:24:54;;;;;;;9.93;8.90;;;;;;;;;;5042856;28;20057;-61
2023/06/29 00:27:21;;;;;;;10.75;9.73;;;;;;;;;;5040741;28;20053;-61
2023/06/29 00:29:48;;;;;;;11.07;9.80;;;;;;;;;;5042767;28;20060;-61
2023/06/29 00:32:14;;;;;;;11.18;10.32;;;;;;;;;;5051781;28;20057;-61
2023/06/29 00:34:40;;;;;;;11.75;10.57;;;;;;;;;;5053433;28;20049;-61
2023/06/29 00:37:07;;;;;;;11.18;10.18;;;;;;;;;;5053676;28;20053;-61
2023/06/29 00:39:34;;;;;;;13.52;10.30;;;;;;;;;;5053363;28;20053;-61
2023/06/29 00:42:01;;;;;;;11.45;10.07;;;;;;;;;;5053512;28;20041;-61
2023/06/29 00:44:28;;;;;;;;;;;;;;;;;;5053543;28;20049;-62
2023/06/29 00:46:54;;;;;;;11.48;10.57;;;;;;;;;;5053544;28;19931;-61
2023/06/29 00:49:21;;;;;;;11.85;10.90;;;;;;;;;;5053489;28;20056;-61
2023/06/29 00:51:49;;;;;;;12.17;11.07;;;;;;;;;;5053040;28;20044;-61
2023/06/29 00:54:16;;;;;;;4.22;3.78;;;;;;;;;;5053194;28;20049;-61
2023/06/29 00:56:43;;;;;;;3.45;3.05;;;;;;;;;;5053313;28;20052;-61
2023/06/29 00:59:09;;;;;;;4.47;2.60;;;;;;;;;;5052882;28;20048;-61
2023/06/29 01:01:38;;;;;;;2.17;1.80;;;;;;;;;;5053028;28;20052;-61
2023/06/29 01:04:05;;;;;;;2.78;1.63;;;;;;;;;;5052782;28;20060;-61
2023/06/29 01:06:33;;;;;;;1.88;1.45;;;;;;;;;;5052258;28;20480;-61
2023/06/29 01:09:04;;;;;;;2.13;1.42;;;;;;;;;;5052633;28;20057;-61
2023/06/29 01:11:34;;;;;;;2.53;1.40;;;;;;;;;;5053042;28;20052;-61
2023/06/29 01:14:03;;;;;;;2.75;1.42;;;;;;;;;;5052710;28;20503;-61
2023/06/29 01:16:33;;;;;;;1.90;1.10;;;;;;;;;;5052908;28;20045;-61
2023/06/29 01:19:09;;;;;;;1.98;1.00;;;;;;;;;;5052634;28;20089;-61
2023/06/29 01:21:40;;;;;;;1.10;0.70;;;;;;;;;;5052837;28;20056;-61
2023/06/29 01:24:08;;;;;;;2.00;1.00;;;;;;;;;;5046335;28;20053;-61
2023/06/29 01:26:38;;;;;;;1.40;0.93;;;;;;;;;;5045655;28;20066;-61
2023/06/29 01:29:05;;;;;;;1.13;0.90;;;;;;;;;;5052619;28;20049;-61
2023/06/29 01:31:31;;;;;;;2.28;1.13;;;;;;;;;;5052181;28;20056;-61
2023/06/29 01:33:58;;;;;;;2.45;1.40;;;;;;;;;;5052125;28;20044;-61
2023/06/29 01:36:25;;;;;;;2.97;1.63;;;;;;;;;;5052450;28;20499;-62
2023/06/29 01:39:01;;;;;;;2.20;2.00;;;;;;;;;;5052134;28;20044;-61
2023/06/29 01:41:29;;;;;;;3.30;1.80;;;;;;;;;;5052446;28;20053;-61
2023/06/29 01:43:56;;;;;;;1.98;1.35;;;;;;;;;;5052337;28;20521;-61
2023/06/29 01:46:22;;;;;;;2.58;1.52;;;;;;;;;;5051911;28;20118;-60
2023/06/29 01:48:50;;;;;;;3.03;1.65;;;;;;;;;;5052012;28;20088;-61
2023/06/29 01:51:16;;;;;;;3.17;1.67;;;;;;;;;;5050993;28;20385;-60
2023/06/29 01:53:43;;;;;;;1.70;1.60;;;;;;;;;;5052046;28;20056;-61
2023/06/29 01:56:09;;;;;;;5.40;1.95;;;;;;;;;;5051808;28;20048;-60
2023/06/29 01:58:36;;;;;;;2.55;1.30;;;;;;;;;;5051903;28;20049;-61
2023/06/29 02:01:02;;;;;;;4.35;1.30;;;;;;;;;;5051639;28;20055;-61
2023/06/29 02:03:28;;;;;;;1.58;1.10;;;;;;;;;;5051695;28;20504;-61
2023/06/29 02:05:55;;;;;;;1.42;1.30;;;;;;;;;;5051809;28;20088;-61
2023/06/29 02:08:22;;;;;;;2.28;1.20;;;;;;;;;;5051795;28;20439;-61
2023/06/29 02:10:48;;;;;;;1.17;0.88;;;;;;;;;;5051576;28;20408;-61
2023/06/29 02:13:14;;;;;;;1.45;1.10;;;;;;;;;;5051713;28;20049;-61
2023/06/29 02:15:41;;;;;;;1.45;1.10;;;;;;;;;;5051461;28;20385;-60
2023/06/29 02:18:08;;;;;;;2.65;1.55;;;;;;;;;;5050513;28;20041;-61
2023/06/29 02:20:34;;;;;;;1.30;1.20;;;;;;;;;;5050295;28;20576;-60
2023/06/29 02:23:01;;;;;;;1.90;1.13;;;;;;;;;;5051610;28;20045;-61
2023/06/29 02:25:27;;;;;;;1.35;1.10;;;;;;;;;;5051914;28;20057;-61
2023/06/29 02:27:54;;;;;;;0.85;0.77;;;;;;;;;;5051385;28;20049;-61
2023/06/29 02:30:20;;;;;;;1.40;1.15;;;;;;;;;;5051309;28;20056;-61
2023/06/29 02:32:47;;;;;;;2.40;1.10;;;;;;;;;;5051480;28;20823;-61
2023/06/29 02:35:13;;;;;;;0.93;0.93;;;;;;;;;;5051378;28;20045;-61
2023/06/29 02:37:40;;;;;;;1.00;1.00;;;;;;;;;;5051620;28;20049;-61
2023/06/29 02:40:06;;;;;;;2.42;1.10;;;;;;;;;;5051506;28;20102;-61
2023/06/29 02:42:33;;;;;;;1.27;0.93;;;;;;;;;;5051561;28;20103;-61
2023/06/29 02:45:00;;;;;;;1.73;1.20;;;;;;;;;;5051016;28;20095;-61
2023/06/29 02:47:27;;;;;;;1.33;1.13;;;;;;;;;;5051500;28;20048;-61
2023/06/29 02:49:55;;;;;;;3.85;1.00;;;;;;;;;;5051473;28;20048;-61
2023/06/29 02:52:21;;;;;;;;;;;;;;;;;;5051766;28;20472;-61
2023/06/29 02:54:49;;;;;;;1.40;0.90;;;;;;;;;;5051297;28;19924;-61
2023/06/29 02:57:15;;;;;;;2.05;1.20;;;;;;;;;;5051364;28;20049;-61
2023/06/29 02:59:42;;;;;;;0.95;0.95;;;;;;;;;;5051426;28;20049;-61
2023/06/29 03:02:08;;;;;;;2.53;1.17;;;;;;;;;;5051336;28;20057;-61
2023/06/29 03:04:35;;;;;;;1.50;1.30;;;;;;;;;;5051076;28;20539;-61
2023/06/29 03:07:01;;;;;;;2.15;1.25;;;;;;;;;;5051033;28;20118;-61
2023/06/29 03:09:28;;;;;;;2.85;1.40;;;;;;;;;;5051024;28;20045;-61
2023/06/29 03:11:54;;;;;;;2.42;1.10;;;;;;;;;;5050995;28;20049;-60
2023/06/29 03:14:21;;;;;;;3.38;1.40;;;;;;;;;;5051122;28;20049;-61
2023/06/29 03:16:48;;;;;;;1.98;1.30;;;;;;;;;;5051246;28;20447;-61
2023/06/29 03:19:14;;;;;;;3.72;1.40;;;;;;;;;;5051196;28;20041;-61
2023/06/29 03:21:41;;;;;;;1.52;1.42;;;;;;;;;;5051256;28;20045;-61
2023/06/29 03:24:07;;;;;;;2.47;1.38;;;;;;;;;;5051205;28;20463;-61
2023/06/29 03:26:34;;;;;;;1.98;1.52;;;;;;;;;;5051128;28;20053;-61
2023/06/29 03:29:00;;;;;;;1.65;1.55;;;;;;;;;;5050834;28;20522;-61
2023/06/29 03:31:27;;;;;;;2.65;1.40;;;;;;;;;;5054439;28;20049;-61
2023/06/29 03:33:57;;;;;;;2.30;1.80;;;;;;;;;;5054501;28;20081;-61
2023/06/29 03:36:23;;;;;;;2.03;1.48;;;;;;;;;;5054495;28;20045;-61
2023/06/29 03:38:49;;;;;;;3.33;1.77;;;;;;;;;;5054720;28;20091;-61
2023/06/29 03:41:16;;;;;;;1.77;1.70;;;;;;;;;;5054583;28;20059;-61
2023/06/29 03:43:42;;;;;;;2.00;1.80;;;;;;;;;;5054527;28;20060;-61
2023/06/29 03:46:09;;;;;;;2.40;1.70;;;;;;;;;;5054492;28;20087;-60
2023/06/29 03:48:36;;;;;;;2.67;1.80;;;;;;;;;;5054568;28;20135;-61
2023/06/29 03:51:02;;;;;;;2.05;1.83;;;;;;;;;;5054231;28;20143;-60
2023/06/29 03:53:29;;;;;;;3.28;2.00;;;;;;;;;;5054060;28;20122;-61
2023/06/29 03:55:55;;;;;;;2.55;2.28;;;;;;;;;;5054402;28;20049;-62
2023/06/29 03:58:22;;;;;;;2.42;2.10;;;;;;;;;;5054475;28;20448;-61
2023/06/29 04:00:48;;;;;;;2.45;2.25;;;;;;;;;;5053989;28;20119;-61
2023/06/29 04:03:15;;;;;;;2.33;2.13;;;;;;;;;;5053966;28;20056;-61
2023/06/29 04:05:41;;;;;;;2.00;1.88;;;;;;;;;;5053886;28;20520;-61
2023/06/29 04:08:08;;;;;;;3.73;2.60;;;;;;;;;;5053752;28;20057;-61
2023/06/29 04:10:34;;;;;;;3.03;2.50;;;;;;;;;;5053828;28;20090;-61
2023/06/29 04:13:01;;;;;;;2.53;2.33;;;;;;;;;;5053647;28;20052;-61
2023/06/29 04:15:27;;;;;;;3.20;2.60;;;;;;;;;;5053804;28;20398;-61
2023/06/29 04:17:54;;;;;;;3.65;2.85;;;;;;;;;;5053996;28;20531;-61
2023/06/29 04:20:20;;;;;;;5.03;2.97;;;;;;;;;;5053686;28;20045;-61
2023/06/29 04:22:47;;;;;;;4.80;2.88;;;;;;;;;;5053571;28;20130;-61
2023/06/29 04:25:13;;;;;;;5.18;2.83;;;;;;;;;;5053904;28;20056;-61
2023/06/29 04:27:41;;;;;;;3.85;3.17;;;;;;;;;;5053724;28;20057;-61
2023/06/29 04:30:08;;;;;;;3.92;2.83;;;;;;;;;;5053493;28;20059;-61
2023/06/29 04:32:35;;;;;;;4.28;2.88;;;;;;;;;;5053465;28;20057;-61
2023/06/29 04:35:02;;;;;;;3.97;2.63;;;;;;;;;;5053538;28;20400;-61
2023/06/29 04:37:41;;;;;;;2.55;2.35;;;;;;;;;;5053655;28;20041;-61
2023/06/29 04:40:12;;;;;;;3.33;2.08;;;;;;;;;;5053261;28;20049;-61
2023/06/29 04:42:45;;;;;;;2.45;1.90;;;;;;;;;;5052237;28;20056;-61
2023/06/29 04:45:17;;;;;;;2.65;1.80;;;;;;;;;;5053055;28;20056;-61
2023/06/29 04:47:45;;;;;;;1.63;1.52;;;;;;;;;;5053135;28;20088;-61
2023/06/29 04:50:12;;;;;;;1.80;1.50;;;;;;;;;;5053040;28;20084;-61
2023/06/29 04:52:38;;;;;;;1.73;1.63;;;;;;;;;;5044770;28;20050;-61
2023/06/29 04:55:04;;;;;;;2.15;1.60;;;;;;;;;;5047273;28;20060;-61
2023/06/29 04:57:31;;;;;;;3.73;2.03;;;;;;;;;;5053280;28;20047;-61
2023/06/29 04:59:58;;;;;;;1.80;1.50;;;;;;;;;;5053214;28;20057;-61
2023/06/29 05:02:24;;;;;;;2.28;1.67;;;;;;;;;;5052776;28;20049;-61
2023/06/29 05:04:51;;;;;;;1.60;1.50;;;;;;;;;;5053090;28;20053;-61
2023/06/29 05:07:17;;;;;;;3.80;1.38;;;;;;;;;;5052907;28;20099;-61
2023/06/29 05:09:44;;;;;;;3.22;1.50;;;;;;;;;;5052990;28;20110;-61
2023/06/29 05:12:10;;;;;;;2.50;1.40;;;;;;;;;;5052695;28;20444;-61
2023/06/29 05:14:37;;;;;;;1.75;1.30;;;;;;;;;;5052533;28;20079;-61
2023/06/29 05:17:04;;;;;;;2.35;1.20;;;;;;;;;;5052542;28;20056;-61
2023/06/29 05:19:31;;;;;;;2.33;1.50;;;;;;;;;;5052673;28;20045;-61
2023/06/29 05:21:58;;;;;;;;;;;;;;;;;;5039884;28;20057;-61
2023/06/29 05:24:25;;;;;;;2.35;1.40;;;;;;;;;;5050465;28;19924;-61
2023/06/29 05:26:51;;;;;;;3.50;1.30;;;;;;;;;;5052512;28;20053;-60
2023/06/29 05:29:18;;;;;;;1.63;1.00;;;;;;;;;;5052524;28;20049;-61
2023/06/29 05:31:44;;;;;;;1.85;1.13;;;;;;;;;;5052524;28;20053;-61
2023/06/29 05:34:11;;;;;;;3.15;0.90;;;;;;;;;;5051146;28;20136;-61
2023/06/29 05:36:37;;;;;;;2.05;1.00;;;;;;;;;;5052317;28;20119;-61
2023/06/29 05:39:05;;;;;;;1.20;1.10;;;;;;;;;;5052458;28;20078;-60
2023/06/29 05:41:31;;;;;;;1.63;0.90;;;;;;;;;;5052196;28;20049;-61
2023/06/29 05:43:58;;;;;;;2.20;0.90;;;;;;;;;;5052383;28;20053;-61
2023/06/29 05:46:24;;;;;;;2.05;1.20;;;;;;;;;;5052069;28;20060;-60
2023/06/29 05:48:51;;;;;;;1.80;1.00;;;;;;;;;;5052326;28;20061;-60
2023/06/29 05:51:17;;;;;;;1.10;0.98;;;;;;;;;;5052301;28;20421;-61
2023/06/29 05:53:44;;;;;;;2.20;1.17;;;;;;;;;;5051583;28;20052;-61
2023/06/29 05:56:10;;;;;;;1.80;0.90;;;;;;;;;;5052271;28;20053;-61
2023/06/29 05:58:37;;;;;;;2.35;1.10;;;;;;;;;;5037306;28;20692;-61
2023/06/29 06:01:04;;;;;;;1.55;1.08;;;;;;;;;;5035285;28;20095;-61
2023/06/29 06:03:33;;;;;;;1.30;0.95;;;;;;;;;;5032160;28;20397;-60
2023/06/29 06:05:59;;;;;;;1.85;1.02;;;;;;;;;;5035889;28;20456;-60
2023/06/29 06:08:26;;;;;;;2.65;1.00;;;;;;;;;;5051100;28;20049;-60
2023/06/29 06:10:52;;;;;;;1.77;0.90;;;;;;;;;;5051789;28;20052;-60
2023/06/29 06:13:19;;;;;;;0.70;0.70;;;;;;;;;;5051513;28;20052;-61
2023/06/29 06:15:45;;;;;;;1.40;0.88;;;;;;;;;;5051584;28;20054;-61
2023/06/29 06:18:12;;;;;;;2.22;0.90;;;;;;;;;;5051331;28;20483;-60
2023/06/29 06:20:38;;;;;;;1.70;1.08;;;;;;;;;;5050313;28;20044;-61
2023/06/29 06:23:05;;;;;;;1.88;0.80;;;;;;;;;;5051388;28;20041;-60
2023/06/29 06:25:31;;;;;;;0.98;0.98;;;;;;;;;;5051329;28;20045;-61
2023/06/29 06:27:57;;;;;;;2.42;0.90;;;;;;;;;;5051662;28;20061;-60
2023/06/29 06:30:24;;;;;;;1.15;0.80;;;;;;;;;;5040396;28;20092;-60
2023/06/29 06:32:50;;;;;;;1.10;1.00;;;;;;;;;;5046180;28;20060;-60
2023/06/29 06:35:17;;;;;;;1.93;0.70;;;;;;;;;;5038108;28;20045;-60
2023/06/29 06:37:44;;;;;;;2.05;0.60;;;;;;;;;;5051400;28;20049;-60
2023/06/29 06:40:11;;;;;;;2.80;1.00;;;;;;;;;;5050979;28;20041;-59
2023/06/29 06:42:38;;;;;;;;;;;;;;;;;;5031784;28;20075;-61
2023/06/29 06:45:05;;;;;;;2.22;0.70;;;;;;;;;;5032460;28;19936;-61
2023/06/29 06:47:34;;;;;;;2.22;0.77;;;;;;;;;;5038549;28;20057;-61
2023/06/29 06:50:01;;;;;;;1.27;0.70;;;;;;;;;;5051311;28;20536;-61
2023/06/29 06:52:28;;;;;;;2.22;1.30;;;;;;;;;;5050542;28;20064;-61
2023/06/29 06:54:56;;;;;;;1.60;1.00;;;;;;;;;;5051143;28;20049;-61
2023/06/29 06:57:22;;;;;;;1.38;0.70;;;;;;;;;;5051504;28;20084;-62
2023/06/29 06:59:49;;;;;;;1.70;0.98;;;;;;;;;;5051543;28;20048;-61
2023/06/29 07:02:15;;;;;;;1.30;0.70;;;;;;;;;;5051364;28;20049;-61
2023/06/29 07:04:42;;;;;;;0.67;0.60;;;;;;;;;;5051774;28;20056;-61
2023/06/29 07:07:08;;;;;;;7.18;1.25;;;;;;;;;;5055515;28;20294;-61
2023/06/29 07:09:35;;;;;;;2.15;1.05;;;;;;;;;;5055022;28;20496;-61
2023/06/29 07:12:02;;;;;;;3.30;0.70;;;;;;;;;;5054981;28;20061;-61
2023/06/29 07:14:28;;;;;;;2.53;0.63;;;;;;;;;;5054785;28;20102;-61
2023/06/29 07:16:55;;;;;;;1.80;0.60;;;;;;;;;;5054982;28;20048;-61
2023/06/29 07:19:22;;;;;;;0.82;0.70;;;;;;;;;;5054850;28;20080;-61
2023/06/29 07:21:51;;;;;;;1.67;0.55;;;;;;;;;;5054884;28;20056;-61
2023/06/29 07:24:21;;;;;;;3.03;0.88;;;;;;;;;;5054794;28;20114;-62
2023/06/29 07:26:47;;;;;;;2.57;0.70;;;;;;;;;;5054829;28;20449;-61
2023/06/29 07:29:14;;;;;;;2.13;0.68;;;;;;;;;;5054947;28;20289;-61
2023/06/29 07:31:40;;;;;;;1.95;0.80;;;;;;;;;;5054700;28;20068;-62
2023/06/29 07:34:07;;;;;;;1.85;0.50;;;;;;;;;;5054552;28;20060;-61
2023/06/29 07:36:34;;;;;;;1.80;0.50;;;;;;;;;;5054691;28;20087;-61
2023/06/29 07:39:00;;;;;;;2.45;0.65;;;;;;;;;;5054773;28;20084;-62
2023/06/29 07:41:27;;;;;;;2.08;0.52;;;;;;;;;;5054565;28;20065;-62
2023/06/29 07:43:55;;;;;;;2.85;0.70;;;;;;;;;;5054603;28;20041;-61
2023/06/29 07:46:22;;;;;;;1.88;0.70;;;;;;;;;;5054309;28;20057;-62
2023/06/29 07:48:48;;;;;;;1.65;0.60;;;;;;;;;;5054315;28;20048;-61
2023/06/29 07:51:16;;;;;;;2.22;0.73;;;;;;;;;;5054284;28;20045;-61
2023/06/29 07:53:42;;;;;;;0.93;0.70;;;;;;;;;;5053150;28;20068;-62
2023/06/29 07:56:11;;;;;;;3.13;0.75;;;;;;;;;;5054308;28;20085;-61
2023/06/29 07:58:38;;;;;;;0.57;0.50;;;;;;;;;;5054415;28;20041;-60
2023/06/29 08:01:05;;;;;;;2.88;0.90;;;;;;;;;;5054122;28;20057;-61
2023/06/29 08:03:32;;;;;;;0.55;0.40;;;;;;;;;;5053079;28;20081;-61
2023/06/29 08:06:18;;;;;;;2.75;0.60;;;;;;;;;;5054254;28;20103;-62
2023/06/29 08:08:48;;;;;;;1.08;0.70;;;;;;;;;;5053961;28;20056;-61
2023/06/29 08:11:15;;;;;;;1.23;0.70;;;;;;;;;;5054037;28;20049;-61
2023/06/29 08:13:41;;;;;;;0.97;0.87;;;;;;;;;;5053988;28;20049;-61
2023/06/29 08:16:07;;;;;;;1.33;0.60;;;;;;;;;;5053654;28;20053;-61
2023/06/29 08:18:34;;;;;;;1.77;0.75;;;;;;;;;;5054065;28;20455;-61
2023/06/29 08:21:01;;;;;;;1.67;0.50;;;;;;;;;;5053764;28;20477;-61
2023/06/29 08:23:27;;;;;;;1.52;0.60;;;;;;;;;;5052623;28;20282;-62
2023/06/29 08:25:54;;;;;;;1.35;0.80;;;;;;;;;;5054241;28;20099;-62
2023/06/29 08:28:20;;;;;;;1.00;0.53;;;;;;;;;;5053736;28;20048;-62
2023/06/29 08:30:46;;;;;;;2.17;0.73;;;;;;;;;;5053784;28;20048;-62
2023/06/29 08:33:13;;;;;;;2.70;0.80;;;;;;;;;;5053624;28;20045;-61
2023/06/29 08:35:39;;;;;;;2.17;0.50;;;;;;;;;;5053580;28;20140;-62
2023/06/29 08:38:06;;;;;;;1.02;0.50;;;;;;;;;;5053440;28;20045;-61
2023/06/29 08:40:34;;;;;;;1.55;0.60;;;;;;;;;;5053732;28;20048;-62
2023/06/29 08:43:01;;;;;;;0.95;0.50;;;;;;;;;;5053606;28;20052;-61
2023/06/29 08:45:28;;;;;;;2.30;0.50;;;;;;;;;;5053036;28;20565;-61
2023/06/29 08:47:55;;;;;;;2.42;0.85;;;;;;;;;;5053518;28;20056;-61
2023/06/29 08:50:22;;;;;;;;;;;;;;;;;;5053719;28;20048;-61
2023/06/29 08:52:49;;;;;;;1.02;0.57;;;;;;;;;;5053429;28;20434;-62
2023/06/29 08:55:15;;;;;;;1.25;0.43;;;;;;;;;;5052963;28;20077;-62
2023/06/29 08:57:42;;;;;;;1.48;0.60;;;;;;;;;;5053038;28;20064;-61
2023/06/29 09:00:08;;;;;;;0.82;0.40;;;;;;;;;;5053209;28;20492;-61
2023/06/29 09:02:35;;;;;;;1.42;0.55;;;;;;;;;;5052983;28;20516;-61
2023/06/29 09:05:02;;;;;;;;;;;;;;;;;;5053421;28;20091;-61
2023/06/29 09:07:28;;;;;;;1.52;0.40;;;;;;;;;;5053024;28;19925;-62
2023/06/29 09:09:55;;;;;;;2.03;0.68;;;;;;;;;;5052898;28;20080;-61
2023/06/29 09:12:22;;;;;;;0.77;0.40;;;;;;;;;;5053010;28;20053;-61
2023/06/29 09:14:49;;;;;;;1.77;0.75;;;;;;;;;;5052693;28;20049;-61
2023/06/29 09:17:15;;;;;;;2.28;0.60;;;;;;;;;;5052677;28;20041;-61
2023/06/29 09:19:56;;;;;;;1.65;0.65;;;;;;;;;;5052918;28;20045;-61
2023/06/29 09:22:23;;;;;;;1.55;0.50;;;;;;;;;;5052869;28;20049;-62
2023/06/29 09:24:54;;;;;;;1.30;0.63;;;;;;;;;;5052807;28;20480;-61
2023/06/29 09:27:35;;;;;;;0.67;0.40;;;;;;;;;;5052286;28;20063;-61
2023/06/29 09:30:02;;;;;;;0.85;0.57;;;;;;;;;;5052609;28;20075;-61
2023/06/29 09:32:29;;;;;;;0.73;0.57;;;;;;;;;;5052294;28;20056;-61
2023/06/29 09:35:03;;;;;;;2.45;0.50;;;;;;;;;;5052315;28;20467;-61
2023/06/29 09:37:30;;;;;;;0.73;0.30;;;;;;;;;;5052605;28;20851;-61
2023/06/29 09:39:56;;;;;;;1.52;0.60;;;;;;;;;;5052496;28;20049;-62
2023/06/29 09:42:23;;;;;;;2.08;0.47;;;;;;;;;;5052375;28;20045;-62
2023/06/29 09:44:49;;;;;;;2.30;0.50;;;;;;;;;;5052302;28;20577;-61
2023/06/29 09:47:17;;;;;;;2.22;0.50;;;;;;;;;;5052331;28;20488;-62
2023/06/29 09:49:50;;;;;;;1.08;0.50;;;;;;;;;;5052099;28;20075;-62
2023/06/29 09:52:17;;;;;;;0.73;0.50;;;;;;;;;;5052366;28;20049;-61
2023/06/29 09:54:44;;;;;;;0.40;0.40;;;;;;;;;;5052120;28;22019;-61
2023/06/29 09:57:11;;;;;;;1.30;0.55;;;;;;;;;;5052121;28;20045;-61
2023/06/29 09:59:37;;;;;;;;;;;;;;;;;;5052459;28;20048;-61
2023/06/29 10:02:04;;;;;;;1.20;0.45;;;;;;;;;;5051891;28;19959;-61
2023/06/29 10:04:30;;;;;;;0.98;0.40;;;;;;;;;;5050643;28;20068;-62
2023/06/29 10:07:15;;;;;;;1.45;0.30;;;;;;;;;;5051773;28;20099;-62
2023/06/29 10:09:45;;;;;;;0.47;0.40;;;;;;;;;;5052136;28;20049;-62
2023/06/29 10:12:12;;;;;;;0.70;0.30;;;;;;;;;;5051757;28;20055;-62
2023/06/29 10:14:41;;;;;;;1.42;0.60;;;;;;;;;;5044134;28;20049;-61
2023/06/29 10:17:08;;;;;;;0.50;0.30;;;;;;;;;;5045601;28;20179;-62
2023/06/29 10:19:39;;;;;;;1.35;0.43;;;;;;;;;;5052024;28;20071;-62
2023/06/29 10:22:07;;;;;;;2.08;0.50;;;;;;;;;;5051937;28;20049;-62
2023/06/29 10:24:36;;;;;;;0.68;0.60;;;;;;;;;;5051676;28;20061;-62
2023/06/29 10:27:03;;;;;;;1.77;0.47;;;;;;;;;;5051873;28;20128;-61
2023/06/29 10:29:30;;;;;;;1.42;0.60;;;;;;;;;;5051413;28;20052;-62
2023/06/29 10:31:57;;;;;;;2.00;0.38;;;;;;;;;;5051881;28;20041;-62
2023/06/29 10:34:25;;;;;;;1.90;0.50;;;;;;;;;;5051604;28;20053;-62
2023/06/29 10:36:52;;;;;;;1.35;0.40;;;;;;;;;;5051346;28;20048;-62
2023/06/29 10:39:37;;;;;;;0.65;0.30;;;;;;;;;;5051596;28;20076;-62
2023/06/29 10:42:21;;;;;;;1.10;0.30;;;;;;;;;;5055843;28;20045;-62
2023/06/29 10:44:48;;;;;;;0.65;0.28;;;;;;;;;;5055595;28;20065;-62
2023/06/29 10:47:27;;;;;;;1.27;0.35;;;;;;;;;;5055831;28;20049;-62
2023/06/29 10:50:13;;;;;;;0.30;0.20;;;;;;;;;;5055437;28;20049;-62
2023/06/29 10:52:42;;;;;;;1.23;0.30;;;;;;;;;;5055631;28;20052;-62
2023/06/29 10:55:15;;;;;;;1.00;0.50;;;;;;;;;;5055529;28;20057;-62
2023/06/29 10:57:54;;;;;;;1.25;0.30;;;;;;;;;;5055458;28;20052;-62
2023/06/29 11:00:22;;;;;;;0.77;0.43;;;;;;;;;;5055337;28;20048;-62
2023/06/29 11:02:50;;;;;;;0.73;0.30;;;;;;;;;;5055531;28;20067;-63
2023/06/29 11:05:17;;;;;;;1.48;0.43;;;;;;;;;;5055311;28;20052;-62
2023/06/29 11:07:45;;;;;;;1.50;0.40;;;;;;;;;;5055332;28;20055;-62
2023/06/29 11:10:11;;;;;;;0.20;0.20;;;;;;;;;;5055290;28;20048;-62
2023/06/29 11:12:38;;;;;;;1.08;0.25;;;;;;;;;;5055047;28;20049;-62
2023/06/29 11:15:10;;;;;;;0.60;0.43;;;;;;;;;;5054913;28;20516;-61
2023/06/29 11:17:57;;;;;;;0.52;0.40;;;;;;;;;;5054951;28;20094;-62
2023/06/29 11:20:27;;;;;;;1.35;0.50;;;;;;;;;;5055225;28;20400;-62
2023/06/29 11:22:53;;;;;;;1.05;0.30;;;;;;;;;;5055151;28;20041;-62
2023/06/29 11:25:20;;;;;;;1.23;0.30;;;;;;;;;;5055173;28;20049;-62
2023/06/29 11:27:46;;;;;;;1.20;0.40;;;;;;;;;;5054999;28;20102;-62
2023/06/29 11:30:13;;;;;;;0.30;0.30;;;;;;;;;;5054741;28;20049;-61
2023/06/29 11:32:40;;;;;;;0.80;0.40;;;;;;;;;;5054986;28;20412;-62
2023/06/29 11:35:10;;;;;;;2.05;0.40;;;;;;;;;;5054826;28;20088;-62
2023/06/29 11:37:38;;;;;;;1.17;0.40;;;;;;;;;;5054606;28;20048;-61
2023/06/29 11:40:14;;;;;;;1.45;0.50;;;;;;;;;;5054524;28;20045;-62
2023/06/29 11:42:41;;;;;;;0.70;0.63;;;;;;;;;;5054530;28;20573;-62
2023/06/29 11:45:08;;;;;;;0.52;0.45;;;;;;;;;;5054430;28;20061;-62
2023/06/29 11:47:35;;;;;;;1.52;0.40;;;;;;;;;;5054705;28;20053;-62
2023/06/29 11:50:04;;;;;;;0.45;0.45;;;;;;;;;;5054187;28;20048;-62
2023/06/29 11:52:31;;;;;;;1.17;0.40;;;;;;;;;;5054188;28;20067;-62
2023/06/29 11:55:01;;;;;;;1.17;0.60;;;;;;;;;;5054149;28;20053;-62
2023/06/29 11:57:34;;;;;;;1.23;0.50;;;;;;;;;;5054267;28;20557;-61
2023/06/29 12:00:01;;;;;;;1.27;0.50;;;;;;;;;;5054495;28;20052;-62
2023/06/29 12:02:27;;;;;;;0.73;0.45;;;;;;;;;;5054380;28;20056;-62
2023/06/29 12:04:57;;;;;;;0.55;0.50;;;;;;;;;;5054426;28;20466;-62
2023/06/29 12:07:37;;;;;;;2.03;0.40;;;;;;;;;;5053908;28;20048;-61
2023/06/29 12:10:05;;;;;;;2.17;0.60;;;;;;;;;;5054317;28;20432;-62
2023/06/29 12:12:35;;;;;;;1.42;0.73;;;;;;;;;;5053852;28;20041;-62
2023/06/29 12:15:12;;;;;;;1.80;0.57;;;;;;;;;;5053974;28;20070;-62
2023/06/29 12:17:39;;;;;;;3.83;0.80;;;;;;;;;;5053806;28;20049;-62
2023/06/29 12:20:13;;;;;;;1.80;0.80;;;;;;;;;;5053877;28;20111;-61
2023/06/29 12:22:40;;;;;;;1.77;0.75;;;;;;;;;;5053905;28;20049;-62
2023/06/29 12:25:11;;;;;;;2.83;1.00;;;;;;;;;;5053909;28;20437;-62
2023/06/29 12:27:39;;;;;;;2.20;0.82;;;;;;;;;;5054146;28;20477;-62
2023/06/29 12:30:06;;;;;;;1.08;0.70;;;;;;;;;;5053820;28;20057;-62
2023/06/29 12:32:32;;;;;;;;;;;;;;;;;;5053917;28;20056;-62
2023/06/29 12:34:58;;;;;;;1.85;0.70;;;;;;;;;;5053912;28;19924;-62
2023/06/29 12:37:25;;;;;;;1.10;0.70;;;;;;;;;;5053792;28;20056;-62
2023/06/29 12:39:52;;;;;;;;;;;;;;;;;;5053970;28;20056;-62
2023/06/29 12:42:19;;;;;;;1.08;0.43;;;;;;;;;;5053398;28;19924;-62
2023/06/29 12:44:45;;;;;;;1.48;0.65;;;;;;;;;;5053223;28;20072;-62
2023/06/29 12:47:12;;;;;;;1.52;0.77;;;;;;;;;;5053554;28;20132;-62
2023/06/29 12:49:38;;;;;;;2.22;0.80;;;;;;;;;;5053507;28;20052;-62
2023/06/29 12:52:05;;;;;;;2.08;1.00;;;;;;;;;;5053466;28;20060;-62
2023/06/29 12:54:32;;;;;;;1.45;0.80;;;;;;;;;;5053527;28;20495;-61
2023/06/29 12:56:59;;;;;;;4.85;1.00;;;;;;;;;;5053406;28;20484;-62
2023/06/29 12:59:25;;;;;;;1.48;0.60;;;;;;;;;;5053050;28;20041;-62
2023/06/29 13:01:52;;;;;;;1.77;0.70;;;;;;;;;;5052740;28;20056;-62
2023/06/29 13:04:19;;;;;;;1.13;0.70;;;;;;;;;;5052818;28;20223;-62
2023/06/29 13:06:46;;;;;;;2.33;0.70;;;;;;;;;;5052888;28;20566;-62
2023/06/29 13:09:12;;;;;;;2.33;0.80;;;;;;;;;;5053008;28;20045;-62
2023/06/29 13:11:39;;;;;;;1.33;0.80;;;;;;;;;;5053116;28;20065;-62
2023/06/29 13:14:05;;;;;;;3.00;0.60;;;;;;;;;;5052743;28;20049;-62
2023/06/29 13:16:32;;;;;;;2.63;0.70;;;;;;;;;;5053021;28;20419;-62
2023/06/29 13:19:00;;;;;;;3.15;0.80;;;;;;;;;;5052557;28;20515;-62
2023/06/29 13:21:27;;;;;;;3.40;0.80;;;;;;;;;;5052961;28;20443;-62
2023/06/29 13:23:53;;;;;;;0.88;0.65;;;;;;;;;;5052884;28;20045;-62
2023/06/29 13:26:20;;;;;;;2.28;0.80;;;;;;;;;;5052483;28;20055;-62
2023/06/29 13:28:46;;;;;;;1.88;1.00;;;;;;;;;;5052743;28;20052;-62
2023/06/29 13:31:13;;;;;;;;;;;;;;;;;;5052950;28;20055;-62
2023/06/29 13:33:39;;;;;;;2.08;0.60;;;;;;;;;;5052581;28;19931;-63
2023/06/29 13:36:06;;;;;;;2.25;0.40;;;;;;;;;;5052544;28;20051;-63
2023/06/29 13:38:32;;;;;;;1.58;0.70;;;;;;;;;;5052340;28;20118;-62
2023/06/29 13:40:59;;;;;;;0.95;0.50;;;;;;;;;;5052486;28;20060;-62
2023/06/29 13:43:25;;;;;;;1.10;0.43;;;;;;;;;;5052436;28;20045;-63
2023/06/29 13:45:53;;;;;;;1.38;0.55;;;;;;;;;;5052238;28;20086;-63
2023/06/29 13:48:20;;;;;;;1.77;0.88;;;;;;;;;;5050929;28;20049;-63
2023/06/29 13:50:47;;;;;;;2.72;0.70;;;;;;;;;;5052145;28;20049;-63
2023/06/29 13:53:14;;;;;;;1.42;0.50;;;;;;;;;;5052296;28;20169;-62
2023/06/29 13:55:42;;;;;;;3.60;0.90;;;;;;;;;;5051832;28;20053;-62
2023/06/29 13:58:10;;;;;;;1.85;0.82;;;;;;;;;;5052268;28;20484;-63
2023/06/29 14:00:36;;;;;;;2.25;0.60;;;;;;;;;;5052048;28;20049;-62
2023/06/29 14:03:03;;;;;;;2.58;0.77;;;;;;;;;;5052189;28;20053;-62
2023/06/29 14:05:30;;;;;;;2.17;0.70;;;;;;;;;;5052047;28;20064;-62
2023/06/29 14:07:56;;;;;;;2.55;0.70;;;;;;;;;;5052083;28;20044;-63
2023/06/29 14:10:25;;;;;;;5.63;1.70;;;;;;;;;;5051786;28;20049;-62
2023/06/29 14:12:52;;;;;;;1.80;0.55;;;;;;;;;;5051897;28;20060;-62
2023/06/29 14:15:18;;;;;;;1.58;0.77;;;;;;;;;;5051915;28;20049;-63
2023/06/29 14:17:45;;;;;;;1.83;0.68;;;;;;;;;;5051660;28;20045;-62
2023/06/29 14:20:11;;;;;;;3.85;1.40;;;;;;;;;;5051786;28;20048;-62
2023/06/29 14:22:38;;;;;;;2.78;0.90;;;;;;;;;;5052124;28;20059;-63
2023/06/29 14:25:04;;;;;;;4.20;0.90;;;;;;;;;;5051794;28;20053;-62
2023/06/29 14:27:31;;;;;;;1.85;0.77;;;;;;;;;;5051907;28;20084;-63
2023/06/29 14:29:57;;;;;;;3.17;1.45;;;;;;;;;;5051676;28;20056;-62
2023/06/29 14:32:24;;;;;;;2.65;0.88;;;;;;;;;;5051668;28;20055;-62
2023/06/29 14:34:50;;;;;;;4.30;1.98;;;;;;;;;;5051498;28;20412;-62
2023/06/29 14:37:17;;;;;;;5.40;2.05;;;;;;;;;;5051515;28;20075;-63
2023/06/29 14:39:43;;;;;;;4.30;1.67;;;;;;;;;;5050504;28;20132;-62
2023/06/29 14:42:10;;;;;;;4.57;1.38;;;;;;;;;;5051531;28;20064;-62
2023/06/29 14:44:36;;;;;;;6.68;1.38;;;;;;;;;;5051522;28;20424;-62
2023/06/29 14:47:03;;;;;;;5.47;1.88;;;;;;;;;;5051372;28;20060;-62